createdAt,value
2022-12-26T00:04:56.894Z,71.95
2022-12-26T00:10:00.228Z,71.15
2022-12-26T00:15:02.267Z,71.15
2022-12-26T00:20:05.282Z,71.99
2022-12-26T00:25:09.098Z,72.72
2022-12-26T00:30:11.793Z,72.54
2022-12-26T00:35:13.726Z,71.30
2022-12-26T00:40:17.453Z,72.09
2022-12-26T00:45:19.479Z,72.41
2022-12-26T00:50:21.433Z,72.50
2022-12-26T00:55:24.709Z,72.35
2022-12-26T01:00:26.545Z,71.85
2022-12-26T01:05:28.716Z,72.16
2022-12-26T01:10:32.022Z,71.88
2022-12-26T01:15:33.995Z,72.41
2022-12-26T01:20:37.968Z,72.70
2022-12-26T01:26:18.651Z,71.19
2022-12-26T01:31:03.782Z,72.54
2022-12-26T01:36:06.250Z,71.23
2022-12-26T01:41:22.020Z,71.90
2022-12-26T01:46:29.551Z,71.20
2022-12-26T01:51:36.587Z,70.40
2022-12-26T01:56:43.396Z,71.52
2022-12-26T02:01:50.644Z,71.68
2022-12-26T02:06:52.972Z,71.43
2022-12-26T02:12:35.720Z,71.71
2022-12-26T02:17:23.852Z,71.74
2022-12-26T02:22:58.397Z,71.99
2022-12-26T02:28:25.527Z,71.82
2022-12-26T02:33:42.975Z,72.37
2022-12-26T02:38:59.629Z,72.38
2022-12-26T02:44:31.166Z,71.77
2022-12-26T02:50:05.320Z,71.74
2022-12-26T02:55:31.046Z,72.30
2022-12-26T03:00:55.335Z,73.24
2022-12-26T03:06:21.854Z,72.84
2022-12-26T03:11:46.686Z,72.84
2022-12-26T03:17:11.651Z,72.56
2022-12-26T03:22:30.472Z,72.06
2022-12-26T03:27:33.910Z,73.60
2022-12-26T03:32:42.630Z,74.90
2022-12-26T03:37:52.745Z,73.86
2022-12-26T03:43:21.869Z,74.38
2022-12-26T03:48:50.138Z,73.49
2022-12-26T03:54:16.430Z,74.36
2022-12-26T03:59:41.900Z,73.09
2022-12-26T04:05:04.622Z,73.98
2022-12-26T04:10:30.376Z,73.03
2022-12-26T04:16:00.312Z,72.55
2022-12-26T04:21:31.492Z,72.89
2022-12-26T04:26:57.954Z,72.24
2022-12-26T04:32:25.790Z,72.62
2022-12-26T04:37:48.827Z,72.88
2022-12-26T04:43:49.867Z,72.85
2022-12-26T04:48:53.392Z,72.88
2022-12-26T04:53:55.392Z,72.94
2022-12-26T04:58:59.520Z,74.10
2022-12-26T05:04:19.944Z,74.08
2022-12-26T05:09:34.172Z,71.92
2022-12-26T05:14:37.618Z,71.58
2022-12-26T05:19:58.017Z,70.91
2022-12-26T05:25:32.464Z,70.70
2022-12-26T05:30:35.921Z,73.53
2022-12-26T05:35:38.295Z,72.07
2022-12-26T05:40:40.092Z,72.26
2022-12-26T05:45:43.407Z,73.51
2022-12-26T05:50:45.371Z,73.13
2022-12-26T05:55:47.287Z,71.40
2022-12-26T06:00:50.573Z,72.13
2022-12-26T06:05:52.401Z,71.74
2022-12-26T06:10:54.431Z,72.73
2022-12-26T06:15:58.614Z,72.17
2022-12-26T06:21:04.265Z,71.61
2022-12-26T06:26:09.016Z,71.67
2022-12-26T06:31:15.920Z,72.01
2022-12-26T06:36:21.739Z,73.44
2022-12-26T06:41:25.044Z,72.55
2022-12-26T06:46:28.472Z,73.50
2022-12-26T06:51:30.498Z,72.90
2022-12-26T06:56:33.278Z,71.42
2022-12-26T07:01:36.931Z,71.66
2022-12-26T07:06:39.411Z,71.92
2022-12-26T07:11:43.782Z,70.32
2022-12-26T07:16:47.449Z,69.82
2022-12-26T07:21:49.469Z,68.90
2022-12-26T07:26:51.573Z,68.81
2022-12-26T07:31:54.943Z,69.40
2022-12-26T07:36:57.042Z,69.40
2022-12-26T07:41:59.409Z,70.23
2022-12-26T07:47:02.851Z,68.26
2022-12-26T07:52:05.313Z,69.77
2022-12-26T07:57:46.335Z,69.78
2022-12-26T08:02:30.892Z,68.91
2022-12-26T08:07:33.203Z,69.69
2022-12-26T08:12:35.459Z,69.39
2022-12-26T08:17:38.807Z,69.94
2022-12-26T08:22:40.852Z,68.96
2022-12-26T08:27:43.126Z,68.37
2022-12-26T08:32:46.670Z,67.84
2022-12-26T08:37:48.735Z,69.60
2022-12-26T08:43:12.190Z,67.03
2022-12-26T08:48:15.295Z,68.42
2022-12-26T08:53:17.262Z,67.93
2022-12-26T08:58:19.303Z,67.30
2022-12-26T09:03:22.807Z,66.85
2022-12-26T09:08:24.959Z,67.18
2022-12-26T09:13:26.938Z,65.96
2022-12-26T09:18:31.687Z,66.38
2022-12-26T09:23:35.085Z,66.37
2022-12-26T09:28:37.842Z,66.27
2022-12-26T09:33:41.832Z,68.31
2022-12-26T09:38:44.692Z,67.30
2022-12-26T09:43:57.586Z,68.20
2022-12-26T09:49:04.551Z,68.86
2022-12-26T09:54:11.713Z,67.62
2022-12-26T09:59:15.862Z,67.88
2022-12-26T10:04:28.963Z,69.98
2022-12-26T10:09:45.446Z,70.86
2022-12-26T10:14:51.722Z,72.22
2022-12-26T10:20:13.638Z,72.17
2022-12-26T10:25:18.117Z,73.89
2022-12-26T10:30:23.501Z,73.98
2022-12-26T10:35:32.139Z,73.09
2022-12-26T10:40:39.153Z,70.67
2022-12-26T10:45:50.516Z,71.88
2022-12-26T10:50:54.128Z,69.83
2022-12-26T10:55:57.142Z,66.30
2022-12-26T11:01:30.449Z,65.35
2022-12-26T11:06:38.507Z,65.94
2022-12-26T11:11:46.621Z,64.81
2022-12-26T11:16:49.416Z,64.87
2022-12-26T11:21:52.746Z,65.43
2022-12-26T11:27:18.640Z,67.17
2022-12-26T11:32:20.862Z,66.35
2022-12-26T11:37:29.811Z,66.41
2022-12-26T11:42:32.153Z,66.46
2022-12-26T11:47:34.179Z,66.25
2022-12-26T11:52:51.719Z,66.57
2022-12-26T11:57:58.899Z,66.37
2022-12-26T12:03:01.357Z,65.61
2022-12-26T12:08:21.367Z,64.63
2022-12-26T12:13:44.799Z,64.97
2022-12-26T12:18:57.296Z,64.33
2022-12-26T12:24:20.275Z,63.12
2022-12-26T12:29:42.655Z,63.22
2022-12-26T12:35:06.623Z,64.27
2022-12-26T12:40:26.916Z,63.70
2022-12-26T12:45:32.836Z,65.10
2022-12-26T12:50:41.498Z,65.39
2022-12-26T12:56:04.755Z,64.42
2022-12-26T13:01:11.065Z,65.29
2022-12-26T13:06:17.777Z,66.47
2022-12-26T13:11:26.531Z,66.42
2022-12-26T13:16:32.546Z,66.56
2022-12-26T13:21:37.488Z,68.21
2022-12-26T13:26:43.800Z,67.65
2022-12-26T13:31:46.608Z,67.47
2022-12-26T13:36:50.219Z,67.08
2022-12-26T13:42:14.883Z,66.64
2022-12-26T13:47:34.877Z,68.36
2022-12-26T13:52:40.073Z,66.89
2022-12-26T13:57:45.047Z,67.10
2022-12-26T14:08:33.266Z,67.85
2022-12-26T14:14:01.375Z,66.48
2022-12-26T14:19:12.397Z,66.46
2022-12-26T14:24:31.004Z,67.10
2022-12-26T14:29:45.911Z,66.62
2022-12-26T14:34:59.273Z,66.05
2022-12-26T14:40:17.955Z,65.83
2022-12-26T14:45:42.432Z,65.54
2022-12-26T14:50:46.843Z,65.67
2022-12-26T14:55:50.986Z,66.16
2022-12-26T15:00:55.880Z,65.44
2022-12-26T15:06:30.430Z,66.81
2022-12-26T15:11:50.739Z,67.02
2022-12-26T15:17:06.738Z,67.70
2022-12-26T15:22:37.206Z,68.72
2022-12-26T15:28:25.044Z,68.33
2022-12-26T15:33:38.835Z,67.86
2022-12-26T15:38:49.240Z,69.01
2022-12-26T15:44:03.876Z,68.41
2022-12-26T15:49:24.424Z,68.97
2022-12-26T15:54:49.202Z,70.65
2022-12-26T16:00:09.742Z,71.14
2022-12-26T16:05:38.075Z,71.63
2022-12-26T16:10:40.318Z,73.14
2022-12-26T16:15:44.969Z,76.29
2022-12-26T16:21:10.001Z,78.00
2022-12-26T16:26:18.571Z,78.51
2022-12-26T16:31:23.357Z,78.31
2022-12-26T16:36:31.888Z,80.00
2022-12-26T16:41:38.257Z,79.58
2022-12-26T16:46:40.676Z,80.79
2022-12-26T16:51:47.749Z,81.27
2022-12-26T16:56:51.918Z,81.44
2022-12-26T17:01:58.171Z,81.96
2022-12-26T17:07:06.308Z,82.34
2022-12-26T17:12:19.042Z,81.96
2022-12-26T17:17:31.008Z,82.68
2022-12-26T17:22:35.368Z,82.49
2022-12-26T17:27:37.426Z,82.60
2022-12-26T17:32:42.720Z,82.98
2022-12-26T17:37:50.077Z,82.67
2022-12-26T17:42:54.095Z,80.79
2022-12-26T17:47:57.151Z,81.48
2022-12-26T17:53:05.294Z,81.39
2022-12-26T17:58:11.765Z,81.90
2022-12-26T18:03:13.919Z,80.95
2022-12-26T18:08:27.465Z,80.84
2022-12-26T18:13:29.529Z,81.26
2022-12-26T18:18:34.934Z,79.75
2022-12-26T18:23:39.019Z,79.60
2022-12-26T18:28:41.008Z,79.05
2022-12-26T18:33:43.033Z,78.78
2022-12-26T18:38:46.403Z,76.99
2022-12-26T18:43:48.405Z,75.54
2022-12-26T18:48:53.840Z,74.95
2022-12-26T18:53:57.257Z,76.87
2022-12-26T18:58:59.304Z,76.71
2022-12-26T19:04:01.400Z,77.78
2022-12-26T19:09:05.376Z,77.04
2022-12-26T19:14:08.688Z,77.09
2022-12-26T19:19:10.629Z,75.78
2022-12-26T19:24:15.112Z,76.29
2022-12-26T19:29:17.150Z,75.84
2022-12-26T19:34:19.141Z,74.65
2022-12-26T19:39:22.663Z,74.58
2022-12-26T19:44:24.770Z,74.69
2022-12-26T19:49:33.463Z,74.08
2022-12-26T19:54:37.690Z,72.93
2022-12-26T19:59:39.723Z,73.02
2022-12-26T20:04:41.800Z,72.68
2022-12-26T20:09:45.168Z,73.73
2022-12-26T20:14:47.304Z,73.11
2022-12-26T20:19:50.179Z,73.19
2022-12-26T20:24:55.684Z,72.56
2022-12-26T20:29:57.761Z,73.48
2022-12-26T20:34:59.904Z,72.96
2022-12-26T20:40:03.803Z,73.47
2022-12-26T20:45:07.077Z,72.92
2022-12-26T20:50:09.848Z,74.63
2022-12-26T20:55:13.816Z,72.86
2022-12-26T21:00:18.709Z,72.47
2022-12-26T21:05:20.820Z,73.84
2022-12-26T21:10:24.307Z,74.59
2022-12-26T21:15:26.322Z,74.35
2022-12-26T21:20:28.452Z,75.26
2022-12-26T21:25:33.193Z,74.83
2022-12-26T21:30:35.226Z,74.24
2022-12-26T21:35:37.408Z,74.51
2022-12-26T21:40:43.158Z,74.80
2022-12-26T21:45:45.244Z,75.39
2022-12-26T21:50:47.217Z,74.89
2022-12-26T21:55:50.507Z,75.53
2022-12-26T22:00:52.453Z,74.46
2022-12-26T22:05:54.726Z,75.64
2022-12-26T22:11:16.596Z,75.44
2022-12-26T22:16:19.832Z,75.07
2022-12-26T22:21:22.244Z,75.10
2022-12-26T22:26:26.346Z,75.75
2022-12-26T22:31:31.544Z,75.76
2022-12-26T22:36:34.036Z,75.53
2022-12-26T22:41:37.995Z,74.96
2022-12-26T22:46:40.317Z,76.18
2022-12-26T22:51:42.383Z,74.24
2022-12-26T22:56:45.711Z,76.35
2022-12-26T23:01:47.729Z,76.36
2022-12-26T23:06:50.163Z,75.34
2022-12-26T23:12:12.672Z,76.04
2022-12-26T23:17:37.206Z,75.17
2022-12-26T23:22:39.655Z,74.84
2022-12-26T23:28:01.701Z,74.66
2022-12-26T23:33:03.810Z,75.14
2022-12-26T23:38:05.820Z,74.94
2022-12-26T23:43:09.171Z,74.91
2022-12-26T23:48:11.885Z,74.06
2022-12-26T23:53:13.849Z,73.68
2022-12-26T23:58:17.228Z,72.95
